Time;durP1;ratioP1;P1;durP2;ratioP2;P2;SDS_P1;SDS_P2;PMS_P1;PMS_P2;Temp;Humidity;BMP_temperature;BMP_pressure;BME280_temperature;BME280_humidity;BME280_pressure;Samples;Min_cycle;Max_cycle;Signal;HPM_P1;HPM_P2
2021/12/07 00:01:28;;;;;;;26.83;14.15;;;1.00;99.90;;;;;;5072871;28;20442;-76
2021/12/07 00:03:54;;;;;;;21.50;10.50;;;1.00;99.90;;;;;;5078335;28;20044;-75
2021/12/07 00:06:21;;;;;;;12.85;7.13;;;1.10;99.90;;;;;;5075773;28;20126;-76
2021/12/07 00:08:49;;;;;;;16.48;9.00;;;1.10;99.90;;;;;;5093153;28;20056;-76
2021/12/07 00:11:15;;;;;;;12.20;6.32;;;1.10;99.90;;;;;;5093262;28;20062;-76
2021/12/07 00:13:42;;;;;;;9.45;5.43;;;1.10;99.90;;;;;;5093234;28;20040;-75
2021/12/07 00:16:10;;;;;;;16.65;9.00;;;1.20;99.90;;;;;;5093256;28;20044;-76
2021/12/07 00:18:37;;;;;;;26.35;14.50;;;1.20;99.90;;;;;;5093153;28;20068;-75
2021/12/07 00:21:05;;;;;;;14.32;7.00;;;1.20;99.90;;;;;;5075400;28;20040;-75
2021/12/07 00:23:32;;;;;;;20.88;10.88;;;1.20;99.90;;;;;;5093202;28;20349;-75
2021/12/07 00:25:57;;;;;;;19.20;11.07;;;1.20;99.90;;;;;;5092982;28;20044;-76
2021/12/07 00:28:24;;;;;;;18.00;11.00;;;1.20;99.90;;;;;;5075071;28;20334;-75
2021/12/07 00:30:51;;;;;;;18.50;8.98;;;1.20;99.90;;;;;;5092981;28;20035;-75
2021/12/07 00:36:05;;;;;;;14.57;8.02;;;1.20;99.90;;;;;;5050936;28;20051;-76
2021/12/07 00:38:32;;;;;;;15.15;8.25;;;1.30;99.90;;;;;;5092861;28;20034;-75
2021/12/07 00:41:01;;;;;;;15.60;8.25;;;1.20;99.90;;;;;;5092719;28;20044;-76
2021/12/07 00:43:28;;;;;;;17.92;10.90;;;1.30;99.90;;;;;;5092653;28;20051;-76
2021/12/07 00:45:57;;;;;;;17.35;10.10;;;1.20;99.90;;;;;;5092586;28;20047;-76
2021/12/07 00:48:23;;;;;;;22.02;8.82;;;1.20;99.90;;;;;;5092734;28;20353;-75
2021/12/07 00:50:50;;;;;;;21.52;11.00;;;1.10;99.90;;;;;;5075005;28;20040;-76
2021/12/07 00:53:16;;;;;;;12.43;6.90;;;1.10;99.90;;;;;;5092746;28;20532;-76
2021/12/07 00:55:46;;;;;;;22.98;12.45;;;1.10;99.90;;;;;;5074860;28;20494;-76
2021/12/07 00:58:17;;;;;;;13.82;7.78;;;1.00;99.90;;;;;;5092598;28;20044;-76
2021/12/07 01:00:47;;;;;;;21.20;11.70;;;1.00;99.90;;;;;;5074805;28;20119;-76
2021/12/07 01:03:13;;;;;;;12.88;7.22;;;1.10;99.90;;;;;;5092588;28;20080;-76
2021/12/07 01:05:46;;;;;;;16.90;9.30;;;1.10;99.90;;;;;;5072389;28;20152;-76
2021/12/07 01:08:21;;;;;;;20.27;10.13;;;1.10;99.90;;;;;;5054393;28;20088;-76
2021/12/07 01:24:42;;;;;;;15.32;7.75;;;1.20;99.90;;;;;;5072087;28;20055;-75
2021/12/07 01:27:10;;;;;;;23.48;13.95;;;1.20;99.90;;;;;;5054558;28;20468;-76
2021/12/07 01:29:38;;;;;;;16.27;9.88;;;1.20;99.90;;;;;;5072091;28;20044;-76
2021/12/07 01:32:33;;;;;;;26.23;15.20;;;1.20;99.90;;;;;;5072011;28;20048;-76
2021/12/07 02:00:49;;;;;;;14.45;7.97;;;1.30;99.90;;;;;;5054379;28;20067;-76
2021/12/07 02:03:15;;;;;;;9.02;5.28;;;1.40;99.90;;;;;;5071738;28;20453;-76
2021/12/07 02:05:42;;;;;;;18.55;10.38;;;1.40;99.90;;;;;;5071773;28;20040;-76
2021/12/07 02:08:08;;;;;;;13.05;7.32;;;1.40;99.90;;;;;;5072196;28;20044;-76
2021/12/07 02:10:34;;;;;;;14.25;9.05;;;1.40;99.90;;;;;;5057775;28;20053;-75
2021/12/07 02:13:07;;;;;;;9.70;5.65;;;1.40;99.90;;;;;;5075122;28;20437;-76
2021/12/07 02:15:34;;;;;;;10.63;6.03;;;1.40;99.90;;;;;;5075165;28;20044;-76
2021/12/07 02:18:00;;;;;;;14.30;8.73;;;1.40;99.90;;;;;;5057692;28;20040;-76
2021/12/07 02:20:29;;;;;;;20.40;12.82;;;1.30;99.90;;;;;;5057511;28;20326;-76
2021/12/07 02:22:55;;;;;;;19.23;11.57;;;1.30;99.90;;;;;;5057545;28;20048;-76
2021/12/07 02:25:21;;;;;;;20.65;12.73;;;1.30;99.90;;;;;;5057531;28;20055;-76
2021/12/07 02:27:49;;;;;;;22.27;13.05;;;1.30;99.90;;;;;;5074766;28;20062;-75
2021/12/07 02:30:18;;;;;;;18.95;11.60;;;1.30;99.90;;;;;;5074987;28;20048;-76
2021/12/07 02:32:44;;;;;;;17.10;10.35;;;1.40;99.90;;;;;;5074939;28;20241;-76
2021/12/07 02:35:13;;;;;;;20.45;11.35;;;1.40;99.90;;;;;;5074949;28;20054;-76
2021/12/07 02:37:39;;;;;;;18.40;10.68;;;1.40;99.90;;;;;;5057101;28;20115;-76
2021/12/07 02:40:08;;;;;;;21.50;12.73;;;1.50;99.90;;;;;;5074766;28;20046;-76
2021/12/07 02:42:34;;;;;;;17.63;11.40;;;1.50;99.90;;;;;;5057289;28;20040;-75
2021/12/07 02:45:01;;;;;;;22.33;12.35;;;1.50;99.90;;;;;;5074760;28;20049;-76
2021/12/07 02:47:27;;;;;;;19.45;11.10;;;1.50;99.90;;;;;;5074623;28;20048;-75
2021/12/07 02:49:53;;;;;;;19.05;10.90;;;1.60;99.90;;;;;;5074716;28;20043;-75
2021/12/07 02:52:18;;;;;;;20.08;12.25;;;1.60;99.90;;;;;;5074440;28;20048;-76
2021/12/07 02:54:48;;;;;;;21.33;11.77;;;1.70;99.90;;;;;;5057005;28;20041;-76
2021/12/07 02:57:17;;;;;;;19.75;12.57;;;1.70;99.90;;;;;;5074416;28;20049;-76
2021/12/07 02:59:52;;;;;;;21.70;12.60;;;1.70;99.90;;;;;;5074527;28;20186;-76
2021/12/07 03:02:19;;;;;;;17.25;9.93;;;1.70;99.90;;;;;;5074376;28;20037;-76
2021/12/07 03:05:16;;;;;;;16.80;9.27;;;1.70;99.90;;;;;;5086727;28;20444;-75
2021/12/07 03:26:34;;;;;;;29.35;14.98;;;1.70;99.90;;;;;;5094079;28;20066;-75
2021/12/07 03:29:01;;;;;;;26.17;13.50;;;1.70;99.90;;;;;;5094016;28;20040;-76
2021/12/07 03:31:27;;;;;;;26.48;15.77;;;1.70;99.90;;;;;;5094042;28;20113;-75
2021/12/07 03:33:55;;;;;;;27.83;15.63;;;1.80;99.90;;;;;;5093883;28;20048;-75
2021/12/07 03:36:22;;;;;;;32.28;17.67;;;1.80;99.90;;;;;;5093771;28;20039;-76
2021/12/07 03:38:48;;;;;;;25.77;14.55;;;1.80;99.90;;;;;;5076214;28;20119;-75
2021/12/07 03:41:15;;;;;;;32.03;16.40;;;1.90;99.90;;;;;;5076104;28;20477;-75
2021/12/07 03:43:42;;;;;;;27.77;15.75;;;1.90;99.90;;;;;;5093796;28;20038;-76
2021/12/07 03:46:08;;;;;;;32.65;15.98;;;2.00;99.90;;;;;;5093907;28;20353;-75
2021/12/07 03:48:34;;;;;;;28.70;15.45;;;2.00;99.90;;;;;;5075653;28;20217;-76
2021/12/07 03:51:00;;;;;;;25.08;13.57;;;2.00;99.90;;;;;;5076002;28;20117;-76
2021/12/07 03:53:28;;;;;;;21.83;12.35;;;2.00;99.90;;;;;;5093300;28;20436;-76
2021/12/07 03:55:54;;;;;;;25.65;13.80;;;2.10;99.90;;;;;;5093644;28;20044;-75
2021/12/07 03:58:20;;;;;;;28.70;15.05;;;2.00;99.90;;;;;;5093613;28;20044;-76
2021/12/07 04:00:47;;;;;;;28.85;13.43;;;2.10;99.90;;;;;;5093779;28;20044;-76
2021/12/07 04:03:15;;;;;;;24.85;13.50;;;2.10;99.90;;;;;;5093346;28;20071;-75
2021/12/07 04:05:52;;;;;;;25.20;13.77;;;2.10;99.90;;;;;;5073068;28;20074;-76
2021/12/07 04:08:24;;;;;;;25.10;13.48;;;2.10;99.90;;;;;;5055210;28;20048;-76
2021/12/07 04:10:52;;;;;;;27.23;14.43;;;2.10;99.90;;;;;;5073059;28;20534;-75
2021/12/07 04:13:18;;;;;;;25.27;14.18;;;2.10;99.90;;;;;;5073026;28;20132;-76
2021/12/07 04:15:44;;;;;;;24.80;14.38;;;2.10;99.90;;;;;;5072883;28;20120;-76
2021/12/07 04:18:10;;;;;;;27.17;14.55;;;2.10;99.90;;;;;;5072837;28;20040;-75
2021/12/07 04:20:36;;;;;;;25.48;14.27;;;2.10;99.90;;;;;;5072552;28;20099;-75
2021/12/07 04:23:04;;;;;;;27.80;13.57;;;2.00;99.90;;;;;;5055268;28;20216;-76
2021/12/07 04:25:31;;;;;;;28.50;14.45;;;1.90;99.90;;;;;;5072837;28;20454;-76
2021/12/07 04:27:57;;;;;;;24.60;13.45;;;1.90;99.90;;;;;;5072677;28;20127;-76
2021/12/07 04:30:32;;;;;;;26.45;14.30;;;1.90;99.90;;;;;;5072686;28;20067;-75
2021/12/07 04:32:59;;;;;;;30.35;15.80;;;1.90;99.90;;;;;;5072560;28;20044;-76
2021/12/07 04:35:25;;;;;;;27.20;13.23;;;1.90;99.90;;;;;;5072715;28;20075;-75
2021/12/07 04:37:51;;;;;;;26.35;13.73;;;1.90;99.90;;;;;;5055032;28;20123;-76
2021/12/07 04:40:21;;;;;;;27.60;14.20;;;1.90;99.90;;;;;;5072687;28;20032;-76
2021/12/07 04:42:48;;;;;;;32.47;14.65;;;1.80;99.90;;;;;;5072488;28;20053;-76
2021/12/07 04:45:30;;;;;;;36.58;16.02;;;1.70;99.90;;;;;;5055219;28;20060;-75
2021/12/07 04:59:05;;;;;;;37.78;16.05;;;1.60;99.90;;;;;;5072389;28;20118;-75
2021/12/07 05:01:33;;;;;;;32.55;14.00;;;1.60;99.90;;;;;;5054487;28;20045;-76
2021/12/07 05:04:03;;;;;;;30.95;14.48;;;1.60;99.90;;;;;;5077856;28;20043;-75
2021/12/07 05:06:32;;;;;;;;;;;1.50;99.90;;;;;;5075380;28;20048;-75
2021/12/07 05:09:06;;;;;;;25.25;11.48;;;1.50;99.90;;;;;;5091936;28;19916;-76
2021/12/07 05:11:51;;;;;;;28.48;13.20;;;1.50;99.90;;;;;;5092795;28;20113;-76
2021/12/07 05:14:19;;;;;;;33.83;15.13;;;1.40;99.90;;;;;;5092526;28;20052;-75
2021/12/07 05:25:00;;;;;;;26.63;13.52;;;1.30;99.90;;;;;;5092086;28;20365;-75
2021/12/07 05:38:25;;;;;;;32.58;11.75;;;1.20;99.90;;;;;;5092219;28;20510;-75
2021/12/07 05:40:51;;;;;;;28.70;11.80;;;1.20;99.90;;;;;;5092390;28;20119;-75
2021/12/07 05:43:17;;;;;;;27.70;11.02;;;1.20;99.90;;;;;;5093278;28;20044;-75
2021/12/07 05:45:43;;;;;;;25.73;11.20;;;1.20;99.90;;;;;;5096051;28;20457;-75
2021/12/07 05:48:09;;;;;;;27.70;10.48;;;1.30;99.90;;;;;;5095897;28;20043;-76
2021/12/07 05:50:37;;;;;;;29.48;11.15;;;1.30;99.90;;;;;;5095601;28;20044;-76
2021/12/07 05:53:05;;;;;;;27.25;10.75;;;1.30;99.90;;;;;;5095516;28;20445;-75
2021/12/07 05:55:31;;;;;;;27.25;10.77;;;1.30;99.90;;;;;;5096109;28;20101;-75
2021/12/07 05:57:57;;;;;;;28.77;11.35;;;1.30;99.90;;;;;;5095868;28;20036;-75
2021/12/07 06:00:27;;;;;;;28.75;10.48;;;1.30;99.90;;;;;;5078004;28;20453;-75
2021/12/07 06:02:55;;;;;;;27.13;10.33;;;1.30;99.90;;;;;;5095869;28;20044;-75
2021/12/07 06:05:22;;;;;;;22.00;9.70;;;1.30;99.90;;;;;;5078089;28;20283;-76
2021/12/07 06:07:49;;;;;;;21.33;8.55;;;1.30;99.90;;;;;;5057817;28;20086;-75
2021/12/07 06:10:14;;;;;;;27.42;10.02;;;1.30;99.90;;;;;;5075068;28;20462;-75
2021/12/07 06:12:40;;;;;;;30.27;11.90;;;1.30;99.90;;;;;;5057938;28;20048;-75
2021/12/07 06:15:07;;;;;;;33.60;11.25;;;1.30;99.90;;;;;;5075192;28;20349;-74
2021/12/07 06:17:34;;;;;;;20.23;8.82;;;1.30;99.90;;;;;;5075230;28;20063;-75
2021/12/07 06:20:00;;;;;;;23.40;9.43;;;1.30;99.90;;;;;;5075265;28;20449;-75
2021/12/07 06:22:26;;;;;;;29.58;10.25;;;1.30;99.90;;;;;;5075327;28;20102;-76
2021/12/07 06:24:52;;;;;;;22.73;8.63;;;1.30;99.90;;;;;;5057360;28;20052;-75
2021/12/07 06:27:18;;;;;;;25.92;9.15;;;1.30;99.90;;;;;;5057540;28;20053;-75
2021/12/07 06:29:44;;;;;;;90.97;18.20;;;1.30;99.90;;;;;;5074756;28;20151;-75
2021/12/07 06:32:10;;;;;;;21.95;8.75;;;1.30;99.90;;;;;;5075044;28;20098;-75
2021/12/07 06:34:36;;;;;;;32.28;9.02;;;1.20;99.90;;;;;;5057285;28;20052;-75
2021/12/07 06:37:02;;;;;;;22.50;7.80;;;1.20;99.90;;;;;;5075114;28;20048;-75
2021/12/07 06:39:29;;;;;;;29.10;8.70;;;1.20;99.90;;;;;;5057251;28;20362;-75
2021/12/07 06:41:55;;;;;;;22.50;8.05;;;1.00;99.90;;;;;;5074453;28;20047;-75
2021/12/07 06:44:21;;;;;;;22.13;7.13;;;0.90;99.90;;;;;;5074494;28;20511;-75
2021/12/07 06:46:48;;;;;;;23.10;8.80;;;0.80;99.90;;;;;;5074625;28;20052;-76
2021/12/07 06:49:18;;;;;;;19.38;6.93;;;0.80;99.90;;;;;;5074687;28;20059;-75
2021/12/07 06:51:44;;;;;;;11.63;4.78;;;0.80;99.90;;;;;;5074745;28;20474;-75
2021/12/07 06:54:11;;;;;;;17.02;5.65;;;0.80;99.90;;;;;;5074357;28;20123;-76
2021/12/07 06:56:37;;;;;;;18.60;5.38;;;0.70;99.90;;;;;;5074258;28;20319;-75
2021/12/07 06:59:04;;;;;;;20.83;6.22;;;0.70;99.90;;;;;;5074400;28;20044;-75
2021/12/07 07:01:30;;;;;;;21.80;8.07;;;0.70;99.90;;;;;;5074509;28;20044;-75
2021/12/07 07:03:56;;;;;;;20.45;6.88;;;0.70;99.90;;;;;;5062118;28;20537;-75
2021/12/07 07:06:21;;;;;;;19.23;7.53;;;0.80;99.90;;;;;;5094700;28;20134;-75
2021/12/07 07:08:50;;;;;;;18.83;6.20;;;0.80;99.90;;;;;;5094100;28;20116;-75
2021/12/07 07:11:17;;;;;;;19.48;5.38;;;0.80;99.90;;;;;;5076747;28;20044;-76
2021/12/07 07:13:43;;;;;;;22.92;5.82;;;0.80;99.90;;;;;;5094419;28;20052;-75
2021/12/07 07:16:09;;;;;;;21.80;6.13;;;0.80;99.90;;;;;;5094421;28;20040;-75
2021/12/07 07:18:35;;;;;;;17.45;5.55;;;0.90;99.90;;;;;;5094284;28;20052;-75
2021/12/07 07:21:02;;;;;;;14.10;7.10;;;0.90;99.90;;;;;;5094301;28;20035;-75
2021/12/07 07:23:28;;;;;;;19.85;4.95;;;1.00;99.90;;;;;;5076465;28;20055;-74
2021/12/07 07:25:55;;;;;;;15.30;4.93;;;1.10;99.90;;;;;;5093763;28;20112;-75
2021/12/07 07:28:23;;;;;;;14.70;5.35;;;1.10;99.90;;;;;;5076329;28;20484;-75
2021/12/07 07:30:49;;;;;;;15.70;5.03;;;1.20;99.90;;;;;;5076428;28;20481;-75
2021/12/07 07:33:15;;;;;;;18.05;4.32;;;1.20;99.90;;;;;;5094151;28;20086;-79
2021/12/07 07:35:40;;;;;;;9.90;4.47;;;1.20;99.90;;;;;;5076156;28;20119;-79
2021/12/07 07:38:06;;;;;;;11.77;3.90;;;1.30;99.90;;;;;;5059535;28;20043;-75
2021/12/07 07:40:32;;;;;;;15.48;4.30;;;1.30;99.90;;;;;;5076134;28;20048;-75
2021/12/07 07:42:58;;;;;;;13.93;4.13;;;1.30;99.90;;;;;;5093903;28;20448;-75
2021/12/07 07:45:24;;;;;;;15.63;4.47;;;1.30;99.90;;;;;;5093760;28;20476;-75
2021/12/07 07:47:49;;;;;;;13.80;4.30;;;1.30;99.90;;;;;;5075692;28;20132;-75
2021/12/07 07:50:16;;;;;;;21.75;5.03;;;1.30;99.90;;;;;;5077618;28;20035;-75
2021/12/07 07:52:42;;;;;;;13.25;5.32;;;1.30;99.90;;;;;;5094608;28;20048;-74
2021/12/07 07:55:10;;;;;;;20.90;5.82;;;1.30;99.90;;;;;;5076547;28;20044;-74
2021/12/07 07:57:35;;;;;;;12.23;4.78;;;1.30;99.90;;;;;;5076863;28;20072;-75
2021/12/07 08:00:04;;;;;;;17.92;5.55;;;1.40;99.90;;;;;;5094399;28;20087;-74
2021/12/07 08:02:29;;;;;;;11.80;5.22;;;1.40;99.90;;;;;;5094223;28;20035;-75
2021/12/07 08:04:55;;;;;;;15.85;4.90;;;1.40;99.90;;;;;;5079792;28;20045;-75
2021/12/07 08:07:21;;;;;;;15.85;6.03;;;1.40;99.90;;;;;;5072716;28;20067;-75
2021/12/07 08:09:47;;;;;;;13.52;5.30;;;1.50;99.90;;;;;;5072911;28;20121;-75
2021/12/07 08:12:12;;;;;;;10.57;5.47;;;1.50;99.90;;;;;;5073749;28;20048;-76
2021/12/07 08:14:38;;;;;;;16.95;5.93;;;1.60;99.90;;;;;;5056136;28;20044;-75
2021/12/07 08:17:04;;;;;;;11.38;5.07;;;1.70;99.90;;;;;;5073569;28;20049;-74
2021/12/07 08:19:32;;;;;;;18.30;5.45;;;1.90;99.90;;;;;;5073444;28;20091;-75
2021/12/07 08:21:57;;;;;;;10.20;4.75;;;2.10;99.90;;;;;;5055505;28;20507;-74
2021/12/07 08:24:23;;;;;;;12.90;4.70;;;2.30;99.90;;;;;;5072883;28;20190;-74
2021/12/07 08:26:49;;;;;;;16.10;4.60;;;2.50;99.90;;;;;;5055444;28;20048;-74
2021/12/07 08:29:15;;;;;;;14.38;5.22;;;2.70;99.90;;;;;;5072938;28;20434;-75
2021/12/07 08:31:40;;;;;;;8.15;3.92;;;3.10;99.90;;;;;;5055293;28;20044;-76
2021/12/07 08:34:06;;;;;;;15.85;4.35;;;3.50;99.90;;;;;;5072925;28;20047;-76
2021/12/07 08:36:32;;;;;;;11.88;3.85;;;3.90;99.90;;;;;;5072896;28;20194;-75
2021/12/07 08:38:59;;;;;;;12.20;3.65;;;4.10;99.90;;;;;;5072693;28;20048;-75
2021/12/07 08:41:25;;;;;;;9.75;3.42;;;4.40;99.90;;;;;;5072704;28;20041;-76
2021/12/07 08:43:51;;;;;;;6.70;3.08;;;4.70;99.90;;;;;;5072932;28;20335;-76
2021/12/07 08:46:18;;;;;;;9.30;2.72;;;5.00;99.90;;;;;;5073864;28;20464;-76
2021/12/07 08:48:44;;;;;;;8.90;3.83;;;5.20;99.90;;;;;;5074048;28;20045;-76
2021/12/07 08:51:12;;;;;;;11.02;3.55;;;5.40;99.90;;;;;;5074131;28;20079;-76
2021/12/07 08:53:46;;;;;;;9.80;2.75;;;5.70;99.90;;;;;;5073547;28;20048;-75
2021/12/07 09:01:41;;;;;;;8.40;2.63;;;5.60;99.90;;;;;;5072699;28;20059;-75
2021/12/07 09:04:07;;;;;;;16.02;3.42;;;5.90;99.90;;;;;;5062075;28;20040;-75
2021/12/07 09:06:33;;;;;;;9.50;2.92;;;6.30;99.90;;;;;;5092892;28;20044;-74
2021/12/07 09:08:59;;;;;;;6.40;3.00;;;6.50;99.90;;;;;;5091936;28;20135;-75
2021/12/07 09:11:25;;;;;;;6.85;2.20;;;6.80;99.90;;;;;;5092999;28;20437;-76
2021/12/07 09:13:51;;;;;;;7.97;2.80;;;7.00;99.90;;;;;;5093305;28;20515;-76
2021/12/07 09:16:19;;;;;;;8.20;2.78;;;7.20;99.90;;;;;;5092689;28;20043;-75
2021/12/07 09:18:45;;;;;;;8.90;3.17;;;7.30;99.90;;;;;;5096272;28;20533;-75
2021/12/07 09:21:12;;;;;;;11.55;3.33;;;7.50;99.90;;;;;;5096687;28;20035;-76
2021/12/07 09:23:38;;;;;;;9.32;2.70;;;7.90;99.90;;;;;;5079227;28;20528;-77
2021/12/07 09:26:06;;;;;;;5.75;2.55;;;8.50;99.90;;;;;;5096833;28;20047;-74
2021/12/07 09:28:32;;;;;;;12.57;2.67;;;9.10;99.90;;;;;;5078853;28;20464;-75
2021/12/07 09:30:59;;;;;;;5.60;2.50;;;9.60;99.90;;;;;;5096344;28;20441;-76
2021/12/07 09:33:27;;;;;;;9.93;2.90;;;9.80;99.90;;;;;;5096784;28;20139;-76
2021/12/07 09:35:54;;;;;;;9.05;2.60;;;9.60;99.90;;;;;;5117275;28;20043;-76
2021/12/07 09:38:21;;;;;;;10.25;2.53;;;9.70;99.90;;;;;;5110618;28;20055;-76
2021/12/07 09:40:48;;;;;;;6.43;2.60;;;9.90;99.90;;;;;;5096947;28;20048;-76
2021/12/07 09:43:14;;;;;;;7.80;2.67;;;10.10;99.90;;;;;;5096939;28;20225;-77
2021/12/07 09:45:42;;;;;;;9.90;3.60;;;10.50;99.90;;;;;;5097595;28;20451;-76
2021/12/07 09:48:10;;;;;;;6.15;2.60;;;10.90;99.90;;;;;;5099341;28;20377;-81
2021/12/07 09:50:38;;;;;;;11.00;2.65;;;11.30;99.90;;;;;;5064213;28;20043;-77
2021/12/07 09:53:07;;;;;;;10.50;2.30;;;11.50;99.90;;;;;;5098170;28;20361;-76
2021/12/07 09:55:34;;;;;;;7.30;2.00;;;11.60;99.90;;;;;;5097006;28;20084;-76
2021/12/07 09:58:00;;;;;;;11.57;2.92;;;11.70;99.90;;;;;;5079130;28;20054;-77
2021/12/07 10:00:26;;;;;;;7.97;2.03;;;11.70;99.90;;;;;;5079519;28;20045;-76
2021/12/07 10:02:53;;;;;;;10.70;2.05;;;11.60;99.90;;;;;;5078890;28;20097;-77
2021/12/07 10:05:22;;;;;;;8.40;2.20;;;11.50;99.90;;;;;;5077985;28;20361;-76
2021/12/07 10:07:49;;;;;;;8.32;2.63;;;11.40;99.90;;;;;;5077933;28;20127;-77
2021/12/07 10:10:21;;;;;;;11.85;3.38;;;11.20;99.90;;;;;;5095488;28;20493;-76
2021/12/07 10:12:47;;;;;;;11.50;2.60;;;11.10;99.90;;;;;;5095540;28;20047;-78
2021/12/07 10:15:14;;;;;;;6.35;1.95;;;10.90;99.90;;;;;;5077770;28;20044;-76
2021/12/07 10:17:42;;;;;;;15.00;2.45;;;10.80;99.90;;;;;;5095477;28;20166;-76
2021/12/07 10:20:23;;;;;;;9.30;2.63;;;10.70;99.90;;;;;;5095559;28;20115;-77
2021/12/07 10:22:51;;;;;;;5.63;2.13;;;10.90;99.90;;;;;;5095321;28;20048;-76
2021/12/07 10:25:28;;;;;;;10.82;2.60;;;11.30;99.90;;;;;;5093469;28;20039;-82
2021/12/07 10:27:56;;;;;;;8.90;2.55;;;11.60;99.90;;;;;;5060564;28;20094;-77
2021/12/07 10:30:23;;;;;;;8.20;1.88;;;11.90;99.90;;;;;;5094851;28;20109;-77
2021/12/07 10:33:00;;;;;;;10.73;2.70;;;12.20;99.90;;;;;;5095205;28;20058;-77
2021/12/07 10:35:32;;;;;;;9.25;2.65;;;12.20;99.90;;;;;;5077471;28;20044;-77
2021/12/07 10:38:14;;;;;;;6.90;2.90;;;12.10;99.90;;;;;;5094975;28;20044;-78
2021/12/07 10:40:58;;;;;;;10.48;2.40;;;11.60;96.90;;;;;;5095084;28;20087;-77
2021/12/07 10:43:44;;;;;;;8.75;2.85;;;10.30;98.10;;;;;;5084274;28;20104;-76
2021/12/07 10:46:31;;;;;;;7.93;2.50;;;9.30;99.90;;;;;;5097591;28;20364;-76
2021/12/07 10:49:19;;;;;;;8.82;3.55;;;8.40;99.90;;;;;;5097291;28;20086;-77
2021/12/07 10:51:58;;;;;;;9.30;3.78;;;7.70;99.90;;;;;;5097294;28;20052;-77
2021/12/07 10:54:26;;;;;;;9.27;2.13;;;7.40;99.90;;;;;;5097234;28;20035;-77
2021/12/07 10:56:55;;;;;;;;;;;7.50;99.90;;;;;;5112722;28;20054;-76
2021/12/07 10:59:22;;;;;;;9.48;3.00;;;7.50;99.90;;;;;;5115060;28;19923;-75
2021/12/07 11:01:53;;;;;;;9.93;3.45;;;7.60;99.90;;;;;;5114964;28;20111;-76
2021/12/07 11:04:30;;;;;;;12.05;3.40;;;7.60;99.90;;;;;;5106374;28;20068;-76
2021/12/07 11:07:30;;;;;;;11.65;3.65;;;7.80;99.90;;;;;;5076579;28;20101;-76
2021/12/07 11:10:07;;;;;;;8.20;3.45;;;7.80;99.90;;;;;;5039735;28;20051;-76
2021/12/07 11:12:49;;;;;;;9.32;2.97;;;7.50;99.90;;;;;;5076742;28;20052;-77
2021/12/07 11:15:22;;;;;;;9.10;3.88;;;7.70;99.90;;;;;;5094343;28;20210;-76
2021/12/07 11:17:49;;;;;;;11.80;3.58;;;8.00;99.90;;;;;;5076606;28;20118;-77
2021/12/07 11:20:15;;;;;;;10.63;3.50;;;8.70;99.90;;;;;;5094399;28;20398;-76
2021/12/07 11:22:50;;;;;;;10.98;3.75;;;9.40;99.90;;;;;;5094282;28;20047;-76
2021/12/07 11:25:53;;;;;;;9.60;4.00;;;10.00;99.90;;;;;;5076603;28;20445;-76
2021/12/07 11:31:26;;;;;;;7.55;2.83;;;11.10;99.90;;;;;;5076406;28;20059;-77
2021/12/07 11:33:55;;;;;;;9.98;3.88;;;11.20;99.90;;;;;;5094121;28;20048;-76
2021/12/07 11:36:28;;;;;;;9.38;3.67;;;11.20;99.90;;;;;;5093789;28;20123;-76
2021/12/07 11:38:56;;;;;;;14.50;3.78;;;11.40;99.90;;;;;;5093940;28;20393;-77
2021/12/07 11:41:31;;;;;;;12.52;3.08;;;11.50;99.90;;;;;;5075382;28;20407;-77
2021/12/07 11:44:08;;;;;;;10.32;3.58;;;11.50;99.90;;;;;;5093994;28;20062;-77
2021/12/07 11:46:37;;;;;;;11.75;4.22;;;11.80;99.90;;;;;;5093447;28;20048;-76
2021/12/07 11:49:09;;;;;;;9.93;3.15;;;11.60;99.90;;;;;;5093526;28;20051;-76
2021/12/07 11:51:35;;;;;;;9.55;3.08;;;11.50;99.90;;;;;;5093850;28;20090;-77
2021/12/07 11:54:01;;;;;;;10.80;3.50;;;11.50;99.90;;;;;;5076023;28;20461;-76
2021/12/07 11:56:27;;;;;;;12.50;3.75;;;11.00;99.90;;;;;;5093848;28;20127;-77
2021/12/07 11:58:53;;;;;;;10.20;3.28;;;10.90;99.90;;;;;;5093598;28;20044;-76
2021/12/07 12:01:19;;;;;;;12.80;3.40;;;10.90;99.90;;;;;;5075728;28;20051;-75
2021/12/07 12:03:44;;;;;;;8.63;4.18;;;10.60;99.70;;;;;;5089422;28;20040;-76
2021/12/07 12:06:10;;;;;;;14.07;3.80;;;10.40;99.90;;;;;;5073145;28;20044;-77
2021/12/07 12:08:37;;;;;;;9.15;3.20;;;10.10;99.90;;;;;;5055103;28;20056;-77
2021/12/07 12:11:27;;;;;;;10.68;3.55;;;9.90;99.90;;;;;;5073194;28;20487;-76
2021/12/07 12:14:23;;;;;;;11.68;4.13;;;9.70;99.90;;;;;;5072928;28;20052;-76
2021/12/07 12:17:02;;;;;;;7.25;2.10;;;9.30;99.90;;;;;;5073039;28;20052;-77
2021/12/07 12:19:52;;;;;;;10.27;3.33;;;8.90;99.90;;;;;;5055389;28;20102;-76
2021/12/07 12:22:36;;;;;;;11.13;3.05;;;8.40;99.90;;;;;;5071808;28;20048;-76
2021/12/07 12:25:12;;;;;;;8.88;2.75;;;8.10;99.90;;;;;;5055349;28;20445;-77
2021/12/07 12:27:39;;;;;;;9.13;3.10;;;7.80;99.90;;;;;;5055236;28;20040;-76
2021/12/07 12:30:23;;;;;;;10.50;3.83;;;7.60;99.90;;;;;;5055213;28;20123;-76
2021/12/07 12:32:55;;;;;;;10.63;3.15;;;7.40;99.90;;;;;;5072634;28;20052;-76
2021/12/07 12:35:29;;;;;;;11.85;3.67;;;7.30;99.90;;;;;;5072733;28;20046;-76
2021/12/07 12:37:55;;;;;;;12.52;3.00;;;7.30;99.90;;;;;;5072550;28;20529;-76
2021/12/07 12:40:27;;;;;;;6.90;2.53;;;7.20;99.90;;;;;;5055155;28;20138;-76
2021/12/07 12:42:54;;;;;;;11.07;3.03;;;7.20;99.90;;;;;;5072488;28;20123;-76
2021/12/07 12:45:30;;;;;;;15.43;4.60;;;7.10;99.90;;;;;;5072594;28;20058;-76
2021/12/07 12:48:12;;;;;;;12.90;3.60;;;7.00;99.90;;;;;;5072440;28;20048;-76
2021/12/07 12:50:44;;;;;;;6.25;2.42;;;6.80;99.90;;;;;;5072055;28;20361;-76
2021/12/07 12:53:15;;;;;;;11.63;3.22;;;6.70;99.90;;;;;;5071986;28;20113;-76
2021/12/07 12:55:51;;;;;;;11.70;4.20;;;6.70;99.90;;;;;;5038349;28;20052;-76
2021/12/07 12:58:30;;;;;;;11.40;3.75;;;6.60;99.90;;;;;;5072507;28;20453;-76
2021/12/07 13:01:09;;;;;;;12.52;3.40;;;6.50;99.90;;;;;;5072491;28;20354;-76
2021/12/07 13:04:04;;;;;;;9.23;3.22;;;6.40;99.90;;;;;;5074904;28;20368;-81
2021/12/07 13:06:38;;;;;;;8.73;3.05;;;6.50;99.90;;;;;;5050935;28;20159;-76
2021/12/07 13:09:06;;;;;;;9.40;3.67;;;6.50;99.90;;;;;;5070960;28;20165;-76
2021/12/07 13:11:51;;;;;;;8.32;3.28;;;6.40;99.90;;;;;;5072558;28;20044;-76
2021/12/07 13:14:20;;;;;;;9.40;3.38;;;6.40;99.90;;;;;;5071510;28;20052;-76
2021/12/07 13:16:51;;;;;;;7.93;2.85;;;6.40;99.90;;;;;;5072331;28;20051;-76
2021/12/07 13:19:17;;;;;;;7.85;3.15;;;6.30;99.90;;;;;;5072312;28;20045;-76
2021/12/07 13:21:45;;;;;;;6.30;3.22;;;6.30;99.90;;;;;;5072449;28;20390;-76
2021/12/07 13:24:33;;;;;;;12.23;4.10;;;6.20;99.90;;;;;;5072132;28;20044;-77
2021/12/07 13:27:00;;;;;;;13.52;4.15;;;6.20;99.90;;;;;;5071355;28;20045;-76
2021/12/07 13:29:26;;;;;;;11.38;4.28;;;6.10;99.90;;;;;;5072027;28;20063;-76
2021/12/07 13:31:56;;;;;;;12.05;3.70;;;6.00;99.90;;;;;;5071280;28;20041;-76
2021/12/07 13:34:34;;;;;;;7.35;3.45;;;6.00;99.90;;;;;;5072194;28;20047;-76
2021/12/07 13:37:08;;;;;;;11.20;4.47;;;5.90;99.90;;;;;;5072152;28;20440;-76
2021/12/07 13:39:44;;;;;;;8.23;4.22;;;5.80;99.90;;;;;;5071759;28;20048;-77
2021/12/07 13:42:20;;;;;;;9.45;3.25;;;5.80;99.90;;;;;;5071140;28;20040;-76
2021/12/07 13:45:04;;;;;;;12.27;4.15;;;5.70;99.90;;;;;;5071890;28;20059;-77
2021/12/07 13:47:37;;;;;;;14.65;5.82;;;5.70;99.90;;;;;;5071894;28;20415;-77
2021/12/07 13:50:16;;;;;;;9.23;3.92;;;5.60;99.90;;;;;;5070705;28;20365;-76
2021/12/07 13:52:47;;;;;;;11.77;4.60;;;5.60;99.90;;;;;;5072140;28;20378;-77
2021/12/07 13:55:17;;;;;;;13.30;4.18;;;5.50;99.90;;;;;;5071094;28;20322;-76
2021/12/07 13:57:45;;;;;;;14.68;4.53;;;5.40;99.90;;;;;;5071977;28;20109;-77
2021/12/07 14:00:22;;;;;;;14.82;5.90;;;5.40;99.90;;;;;;5071741;28;20135;-76
2021/12/07 14:02:54;;;;;;;12.43;4.80;;;5.40;99.90;;;;;;5071756;28;20041;-76
2021/12/07 14:05:30;;;;;;;10.07;4.28;;;5.30;99.90;;;;;;5057469;28;20115;-76
2021/12/07 14:07:57;;;;;;;15.35;5.13;;;5.30;99.90;;;;;;5055439;28;20069;-76
2021/12/07 14:10:32;;;;;;;11.95;5.30;;;5.20;99.90;;;;;;5073323;28;20083;-76
2021/12/07 14:13:00;;;;;;;13.48;5.35;;;5.20;99.90;;;;;;5057649;28;20452;-77
2021/12/07 14:15:36;;;;;;;16.58;5.55;;;5.10;99.90;;;;;;5075259;28;20456;-76
2021/12/07 14:18:07;;;;;;;14.48;6.20;;;5.10;99.90;;;;;;5057837;28;20109;-76
2021/12/07 14:20:37;;;;;;;15.27;5.57;;;5.00;99.90;;;;;;5057554;28;20048;-76
2021/12/07 14:23:34;;;;;;;16.92;7.60;;;5.00;99.90;;;;;;5075208;28;20040;-76
2021/12/07 14:26:24;;;;;;;15.85;7.97;;;5.00;99.90;;;;;;5075019;28;20354;-77
2021/12/07 14:28:53;;;;;;;17.10;6.47;;;4.90;99.90;;;;;;5074979;28;20052;-76
2021/12/07 14:31:22;;;;;;;20.92;10.05;;;4.80;99.90;;;;;;5057417;28;20051;-76
2021/12/07 14:33:49;;;;;;;19.27;10.57;;;4.80;99.90;;;;;;5074518;28;20501;-76
2021/12/07 14:36:18;;;;;;;19.38;10.63;;;4.70;99.90;;;;;;5074784;28;20127;-77
2021/12/07 14:38:47;;;;;;;24.77;10.35;;;4.60;99.90;;;;;;5074918;28;20084;-77